Flight Track Log - Related Links

Times and Time Zones

All times are in EDT time to prevent confusion due to time zone crossing. See the GJS3657 flight status page for this flight to view local times or setup timezone preferences in your user account.

Time Position Orientation Groundspeed Altitude Reporting Facility
EDT Latitude Longitude Course Direction KTS MPH feet Rate Location/Type
Tue 07:08:25 AM 42.7297 -73.8081 254° West 148 170 1,700  Level Boston Center
Tue 07:09:32 AM 42.7189 -73.8586 254° West 211 243 5,000 2,422 Climbing Boston Center
Tue 07:10:14 AM 42.7517 -73.8906 324° Northwest 235 270 6,100 2,059 Climbing Boston Center
Tue 07:11:14 AM 42.8092 -73.9514 322° Northwest 248 285 8,500 2,300 Climbing Boston Center
Tue 07:12:14 AM 42.8750 -74.0211 322° Northwest 267 307 10,700 1,850 Climbing Boston Center
Tue 07:13:14 AM 42.9428 -74.0964 321° Northwest 314 361 12,200 1,850 Climbing Boston Center
Tue 07:14:14 AM 43.0267 -74.1925 320° Northwest 357 411 14,400 2,000 Climbing Boston Center
Tue 07:15:14 AM 43.0647 -74.3017 296° West 353 406 16,200 2,100 Climbing Boston Center
Tue 07:16:14 AM 43.0744 -74.4581 275° West 364 419 18,600 2,050 Climbing Boston Center
Tue 07:17:14 AM 43.0822 -74.6006 274° West 375 432 20,300 1,600 Climbing Boston Center
Tue 07:18:14 AM 43.0897 -74.7486 274° West 387 445 21,800 1,400 Climbing Boston Center
Tue 07:19:14 AM 43.0989 -74.9056 275° West 400 460 23,100 1,300 Climbing Boston Center
Tue 07:20:14 AM 43.1058 -75.0650 273° West 412 474 24,400 1,300 Climbing Boston Center
Tue 07:21:14 AM 43.1167 -75.2278 275° West 425 489 25,700 1,350 Climbing Boston Center
Tue 07:22:14 AM 43.1250 -75.3931 274° West 431 496 27,100 1,200 Climbing Boston Center
Tue 07:23:14 AM 43.1314 -75.5386 273° West 437 503 28,100 1,150 Climbing Boston Center
Tue 07:24:14 AM 43.1394 -75.7069 274° West 442 509 29,400 950 Climbing Boston Center
Tue 07:25:14 AM 43.1469 -75.8694 274° West 442 509 30,000 350 Climbing Boston Center
Tue 07:26:14 AM 43.1544 -76.0322 274° West 442 509 30,100 596 Climbing Boston Center
Tue 07:27:55 AM 43.1500 -76.3000 269° West 430 495 31,600 708 Climbing Toronto Center
Tue 07:28:55 AM 43.1500 -76.4500 270° West 440 506 32,000 200 Climbing Toronto Center
Tue 07:29:55 AM 43.1500 -76.6333 270° West 440 506 32,000  Level Toronto Center
Tue 07:30:55 AM 43.1500 -76.7833 270° West 430 495 32,000  Level Toronto Center
Tue 07:31:55 AM 43.1500 -76.9667 270° West 420 483 32,000  Level Toronto Center
Tue 07:32:55 AM 43.1500 -77.1000 270° West 420 483 32,000 450 Level Toronto Center
Tue 07:33:55 AM 43.1333 -77.2500 261° West 420 483 32,900 1,000 Climbing Toronto Center
Tue 07:34:55 AM 43.1500 -77.4333 277° West 420 483 34,000 1,000 Climbing Toronto Center
Tue 07:35:55 AM 43.1500 -77.5833 270° West 420 483 34,900 1,000 Climbing Toronto Center
Tue 07:36:55 AM 43.1333 -77.7667 263° West 420 483 36,000 550 Climbing Toronto Center
Tue 07:37:55 AM 43.1833 -77.9000 297° West 420 483 36,000  Level Toronto Center
Tue 07:38:55 AM 43.2833 -77.9833 329° Northwest 420 483 36,000  Level Toronto Center
Tue 07:39:55 AM 43.3500 -78.1167 305° West 420 483 36,000 50 Level Toronto Center
Tue 07:40:55 AM 43.3500 -78.2500 270° West 430 495 36,100 650 Climbing Toronto Center
Tue 07:41:55 AM 43.2833 -78.4167 241° Southwest 440 506 37,300 950 Climbing Toronto Center
Tue 07:42:55 AM 43.2333 -78.5333 240° Southwest 430 495 38,000 350 Climbing Toronto Center
Tue 07:43:55 AM 43.1500 -78.6667 229° Southwest 430 495 38,000  Level Toronto Center
Tue 07:44:55 AM 43.0667 -78.7833 226° Southwest 430 495 38,000  Level Toronto Center
Tue 07:45:55 AM 43.0500 -78.9500 262° West 430 495 38,000  Level Toronto Center
Tue 07:46:55 AM 43.0500 -79.1167 270° West 430 495 38,000  Level Toronto Center
Tue 07:47:55 AM 43.0500 -79.2667 270° West 420 483 38,000  Level Toronto Center
Tue 07:48:55 AM 43.0500 -79.4333 270° West 420 483 38,000  Level Toronto Center
Tue 07:49:56 AM 43.0500 -79.5833 270° West 400 460 38,000  Level Toronto Center
Tue 07:50:55 AM 43.0500 -79.7500 270° West 410 472 38,000  Level Toronto Center
Tue 07:51:55 AM 43.0333 -79.9000 261° West 410 472 38,000  Level Toronto Center
Tue 07:52:55 AM 43.0500 -80.0667 278° West 400 460 38,000  Level Toronto Center
Tue 07:53:55 AM 43.0333 -80.2000 260° West 400 460 38,000  Level Toronto Center
Tue 07:54:55 AM 43.0500 -80.3667 278° West 410 472 38,000  Level Toronto Center
Tue 07:55:55 AM 43.0833 -80.5167 287° West 410 472 38,000  Level Toronto Center
Tue 07:56:55 AM 43.1167 -80.6667 287° West 400 460 38,000  Level Toronto Center
Tue 07:57:55 AM 43.1500 -80.7833 291° West 390 449 38,000  Level Toronto Center
Tue 07:58:56 AM 43.1833 -80.9333 287° West 400 460 38,000  Level Toronto Center
Tue 07:59:55 AM 43.2167 -81.0667 289° West 400 460 38,000  Level Toronto Center
Tue 08:00:55 AM 43.2500 -81.2333 285° West 400 460 38,000  Level Toronto Center
Tue 08:01:55 AM 43.3000 -81.3667 297° West 400 460 38,000  Level Toronto Center
Tue 08:02:55 AM 43.3333 -81.5167 287° West 400 460 38,000  Level Toronto Center
Tue 08:03:55 AM 43.3667 -81.6500 289° West 390 449 38,000  Level Toronto Center
Tue 08:04:55 AM 43.3833 -81.7833 280° West 390 449 38,000  Level Toronto Center
Tue 08:05:55 AM 43.3667 -81.9500 262° West 390 449 38,000  Level Toronto Center
Tue 08:06:55 AM 43.3500 -82.0833 260° West 400 460 38,000  Level Toronto Center
Tue 08:07:55 AM 43.3500 -82.2500 270° West 400 460 38,000  Level Toronto Center
Tue 08:08:55 AM 43.3500 -82.4000 270° West 400 460 38,000 -550 Level Toronto Center
Tue 08:09:55 AM 43.3333 -82.5667 262° West 400 460 36,900 -1,000 Descending Toronto Center
Tue 08:10:55 AM 43.3167 -82.7000 260° West 400 460 36,000 -450 Descending Toronto Center
Tue 08:11:55 AM 43.3000 -82.8667 262° West 400 460 36,000  Level Toronto Center
Tue 08:12:55 AM 43.2786 -83.0156 259° West 406 467 36,000  Level Cleveland Center
Tue 08:13:55 AM 43.2419 -83.1625 251° West 417 480 36,000  Level Cleveland Center
Tue 08:14:55 AM 43.2075 -83.3061 252° West 417 480 36,000  Level Cleveland Center
Tue 08:15:55 AM 43.1706 -83.4525 251° West 412 474 36,000 -150 Level Cleveland Center
Tue 08:16:55 AM 43.1333 -83.6044 251° West 418 481 35,700 -650 Descending Cleveland Center
Tue 08:17:55 AM 43.0961 -83.7478 250° West 418 481 34,700 -850 Descending Cleveland Center
Tue 08:18:55 AM 43.0178 -83.8744 230° Southwest 418 481 34,000 -350 Descending Cleveland Center
Tue 08:19:55 AM 42.9369 -83.9978 228° Southwest 433 498 34,000  Level Cleveland Center
Tue 08:20:55 AM 42.9072 -84.1492 255° West 416 479 34,000 -500 Level Cleveland Center
Tue 08:21:55 AM 42.9281 -84.2867 282° West 385 443 33,000 -947 Descending Cleveland Center
Tue 08:22:49 AM 42.9514 -84.3981 286° West 367 422 32,200 -517 Descending Chicago Center
Tue 08:23:51 AM 42.9622 -84.5361 276° West 381 438 32,000 -96 Descending Chicago Center
Tue 08:24:54 AM 42.9378 -84.6850 257° West 400 460 32,000  Level Chicago Center
Tue 08:25:55 AM 42.9106 -84.8336 256° West 404 465 32,000  Level Chicago Center
Tue 08:26:57 AM 42.8831 -84.9833 256° West 406 467 32,000 -97 Level Chicago Center
Tue 08:27:59 AM 42.8503 -85.1603 256° West 402 463 31,800 -871 Descending Chicago Center
Tue 08:29:01 AM 42.8222 -85.3108 256° West 408 470 30,200 -1,584 Descending Chicago Center
Tue 08:30:04 AM 42.7944 -85.4558 255° West 399 459 28,500 -1,632 Descending Chicago Center
Tue 08:31:06 AM 42.7689 -85.5953 256° West 383 441 26,800 -1,659 Descending Chicago Center
Tue 08:32:07 AM 42.7444 -85.7328 256° West 374 430 25,100 -1,645 Descending Chicago Center
Tue 08:33:10 AM 42.7200 -85.8692 256° West 370 426 23,400 -1,694 Descending Chicago Center
Tue 08:34:11 AM 42.6931 -86.0133 256° West 385 443 21,600 -1,659 Descending Chicago Center
Tue 08:35:13 AM 42.6678 -86.1539 256° West 384 442 20,000 -1,016 Descending Chicago Center
Tue 08:36:15 AM 42.6367 -86.3178 256° West 375 432 19,500 -484 Descending Chicago Center
Tue 08:37:17 AM 42.6106 -86.4553 256° West 374 430 19,000 -1,065 Descending Chicago Center
Tue 08:38:19 AM 42.5856 -86.5919 256° West 374 430 17,300 -1,839 Descending Chicago Center
Tue 08:39:21 AM 42.5636 -86.7206 257° West 352 405 15,200 -1,790 Descending Chicago Center
Tue 08:40:23 AM 42.5342 -86.8242 249° West 297 342 13,600 -1,645 Descending Chicago Center
Tue 08:41:25 AM 42.5081 -86.9228 250° West 281 323 11,800 -1,887 Descending Chicago Center
Tue 08:42:27 AM 42.4775 -87.0336 250° West 263 303 9,700 -1,355 Descending Chicago Center
Tue 08:43:29 AM 42.4506 -87.1283 249° West 268 308 9,000 -339 Descending Chicago Center
Tue 08:44:31 AM 42.4244 -87.2242 250° West 271 312 9,000 -145 Level Chicago Center
Tue 08:45:33 AM 42.3967 -87.3203 249° West 273 314 8,700 -919 Descending Chicago Center
Tue 08:46:35 AM 42.3683 -87.4247 250° West 274 315 7,100 -1,306 Descending Chicago Center
Tue 08:47:37 AM 42.3372 -87.5114 244° Southwest 263 303 6,000 -532 Descending Chicago Center
Tue 08:48:39 AM 42.2586 -87.5369 194° South 280 322 6,000  Level Chicago Center
Tue 08:49:41 AM 42.1900 -87.5597 194° South 258 297 6,000  Level Chicago Center
Tue 08:50:43 AM 42.1253 -87.5792 193° South 241 277 6,000 -435 Level Chicago Center
Tue 08:51:45 AM 42.0608 -87.5997 193° South 240 276 5,100 -1,161 Descending Chicago Center
Tue 08:52:47 AM 42.0189 -87.6739 233° Southwest 221 254 3,600 -968 Descending Chicago Center
Tue 08:53:49 AM 42.0053 -87.7444 255° West 211 243 3,100 -677 Descending Chicago Center
Tue 08:54:51 AM 42.0033 -87.8019 267° West 181 208 2,200 -774 Descending Chicago Center
Tue 08:55:53 AM 42.0022 -87.8558 268° West 161 185 1,500 -484 Descending Chicago Center
Tue 08:56:55 AM 42.0039 -87.9058 273° West 151 174 1,200 -290 Descending Chicago Center
Tue 08:58:00 AM 41.9817 -87.9067 206° Southwest  Level Estimated

Login

Don't have an account? Register now (free) for customized features, flight alerts, and more!